createdAt,value
2023-03-20T00:01:23.167Z,2.74
2023-03-20T00:03:55.905Z,2.75
2023-03-20T00:06:31.420Z,2.77
2023-03-20T00:08:59.975Z,2.78
2023-03-20T00:11:44.843Z,2.79
2023-03-20T00:14:15.582Z,2.78
2023-03-20T00:16:49.124Z,2.77
2023-03-20T00:19:20.106Z,2.76
2023-03-20T00:21:55.130Z,2.74
2023-03-20T00:24:24.582Z,2.73
2023-03-20T00:26:54.736Z,2.71
2023-03-20T00:29:24.360Z,2.68
2023-03-20T00:31:54.141Z,2.67
2023-03-20T00:34:29.191Z,2.64
2023-03-20T00:37:00.305Z,2.60
2023-03-20T00:39:37.875Z,2.57
2023-03-20T00:42:06.838Z,2.55
2023-03-20T00:44:39.977Z,2.54
2023-03-20T00:47:20.846Z,2.52
2023-03-20T00:49:53.798Z,2.50
2023-03-20T00:52:27.525Z,2.48
2023-03-20T00:59:18.214Z,2.39
2023-03-20T01:01:48.828Z,2.37
2023-03-20T01:04:19.002Z,2.35
2023-03-20T01:06:47.647Z,2.34
2023-03-20T01:09:16.342Z,2.32
2023-03-20T01:11:44.861Z,2.30
2023-03-20T01:14:15.751Z,2.29
2023-03-20T01:16:48.095Z,2.27
2023-03-20T01:19:20.920Z,2.26
2023-03-20T01:21:50.071Z,2.25
2023-03-20T01:24:18.554Z,2.26
2023-03-20T01:26:48.171Z,2.26
2023-03-20T01:29:24.607Z,2.22
2023-03-20T01:31:53.579Z,2.19
2023-03-20T01:34:25.407Z,2.18
2023-03-20T01:36:57.332Z,2.18
2023-03-20T01:39:36.615Z,2.18
2023-03-20T01:42:06.109Z,2.15
2023-03-20T01:44:36.033Z,2.10
2023-03-20T01:47:14.648Z,2.05
2023-03-20T01:50:31.571Z,2.00
2023-03-20T01:53:16.961Z,1.94
2023-03-20T01:55:56.644Z,1.91
2023-03-20T01:58:29.767Z,1.87
2023-03-20T02:00:58.816Z,1.85
2023-03-20T02:03:29.796Z,1.81
2023-03-20T02:06:01.496Z,1.78
2023-03-20T02:08:52.820Z,1.73
2023-03-20T02:11:23.931Z,1.69
2023-03-20T02:13:53.717Z,1.64
2023-03-20T02:16:26.450Z,1.61
2023-03-20T02:20:07.609Z,1.58
2023-03-20T02:22:39.351Z,1.55
2023-03-20T02:25:45.710Z,1.54
2023-03-20T02:28:51.681Z,1.49
2023-03-20T02:31:54.580Z,1.44
2023-03-20T02:34:27.351Z,1.40
2023-03-20T02:37:34.108Z,1.38
2023-03-20T02:40:13.614Z,1.36
2023-03-20T02:43:11.162Z,1.31
2023-03-20T02:46:01.846Z,1.22
2023-03-20T02:48:47.451Z,1.14
2023-03-20T02:51:27.953Z,1.10
2023-03-20T02:54:16.467Z,1.05
2023-03-20T02:56:46.180Z,0.97
2023-03-20T02:59:30.066Z,0.92
2023-03-20T03:03:51.584Z,0.87
2023-03-20T03:06:34.125Z,0.81
2023-03-20T03:09:21.564Z,0.77
2023-03-20T03:12:05.018Z,0.74
2023-03-20T03:15:10.131Z,0.70
2023-03-20T03:17:41.805Z,0.64
2023-03-20T03:20:35.863Z,0.61
2023-03-20T03:23:04.938Z,0.56
2023-03-20T03:25:40.304Z,0.52
2023-03-20T03:28:29.870Z,0.52
2023-03-20T03:30:58.754Z,0.49
2023-03-20T03:33:30.112Z,0.47
2023-03-20T03:36:32.282Z,0.47
2023-03-20T03:39:24.556Z,0.49
2023-03-20T03:42:04.971Z,0.51
2023-03-20T03:44:39.236Z,0.51
2023-03-20T03:47:15.637Z,0.50
2023-03-20T03:49:48.544Z,0.47
2023-03-20T03:52:22.864Z,0.47
2023-03-20T03:54:54.928Z,0.49
2023-03-20T03:57:43.182Z,0.45
2023-03-20T04:00:15.662Z,0.44
2023-03-20T04:02:51.923Z,0.47
2023-03-20T04:05:31.817Z,0.48
2023-03-20T04:08:03.969Z,0.45
2023-03-20T04:10:33.507Z,0.42
2023-03-20T04:13:02.784Z,0.43
2023-03-20T04:15:34.995Z,0.44
2023-03-20T04:18:06.042Z,0.47
2023-03-20T04:20:36.074Z,0.49
2023-03-20T04:23:09.075Z,0.52
2023-03-20T04:25:38.048Z,0.55
2023-03-20T04:28:07.173Z,0.57
2023-03-20T04:31:06.979Z,0.61
2023-03-20T04:33:59.100Z,0.66
2023-03-20T04:37:01.771Z,0.72
2023-03-20T04:39:46.608Z,0.76
2023-03-20T04:42:16.134Z,0.84
2023-03-20T04:44:45.748Z,0.88
2023-03-20T04:47:19.954Z,0.91
2023-03-20T04:50:00.193Z,0.99
2023-03-20T04:52:30.277Z,1.14
2023-03-20T04:54:59.221Z,1.39
2023-03-20T04:57:28.865Z,1.68
2023-03-20T04:59:57.610Z,2.01
2023-03-20T05:02:27.424Z,2.32
2023-03-20T05:04:56.540Z,2.62
2023-03-20T05:07:28.810Z,2.95
2023-03-20T05:10:05.132Z,3.29
2023-03-20T05:12:42.481Z,3.61
2023-03-20T05:15:31.001Z,3.99
2023-03-20T05:18:23.595Z,4.37
2023-03-20T05:21:28.222Z,4.76
2023-03-20T05:24:21.256Z,5.14
2023-03-20T05:27:09.397Z,5.52
2023-03-20T05:30:07.371Z,5.87
2023-03-20T05:32:57.271Z,6.17
2023-03-20T05:35:29.956Z,6.44
2023-03-20T05:38:22.844Z,6.75
2023-03-20T05:41:13.478Z,7.01
2023-03-20T05:44:08.490Z,7.19
2023-03-20T05:47:05.773Z,7.37
2023-03-20T05:50:01.227Z,7.46
2023-03-20T05:52:50.217Z,7.63
2023-03-20T05:55:23.532Z,7.82
2023-03-20T05:58:19.513Z,8.02
2023-03-20T06:01:16.771Z,8.27
2023-03-20T06:04:25.410Z,8.53
2023-03-20T06:07:24.699Z,8.80
2023-03-20T06:10:11.810Z,9.00
2023-03-20T06:12:41.436Z,9.23
2023-03-20T06:15:13.647Z,9.52
2023-03-20T06:17:48.447Z,9.82
2023-03-20T06:20:20.691Z,9.79
2023-03-20T06:22:51.169Z,9.62
2023-03-20T06:25:23.369Z,9.72
2023-03-20T06:27:55.457Z,9.99
2023-03-20T06:30:34.419Z,10.35
2023-03-20T06:36:08.646Z,11.25
2023-03-20T06:38:46.447Z,11.60
2023-03-20T06:41:33.813Z,11.91
2023-03-20T06:44:06.103Z,12.12
2023-03-20T06:46:54.564Z,12.39
2023-03-20T06:49:29.583Z,12.61
2023-03-20T06:51:59.825Z,12.82
2023-03-20T06:54:33.397Z,13.08
2023-03-20T06:57:02.218Z,13.30
2023-03-20T06:59:50.686Z,13.47
2023-03-20T07:02:21.181Z,13.66
2023-03-20T07:04:55.484Z,13.86
2023-03-20T07:07:27.468Z,14.00
2023-03-20T07:09:56.848Z,14.02
2023-03-20T07:12:28.937Z,14.05
2023-03-20T07:15:09.949Z,14.08
2023-03-20T07:17:41.391Z,14.16
2023-03-20T07:20:10.760Z,14.23
2023-03-20T07:22:41.913Z,14.22
2023-03-20T07:25:35.687Z,14.36
2023-03-20T07:28:12.028Z,14.71
2023-03-20T07:30:43.718Z,15.20
2023-03-20T07:33:13.044Z,15.57
2023-03-20T07:35:44.105Z,15.91
2023-03-20T07:38:13.359Z,16.20
2023-03-20T07:40:55.610Z,16.38
2023-03-20T07:43:27.620Z,16.52
2023-03-20T07:46:26.578Z,16.57
2023-03-20T07:48:58.346Z,16.56
2023-03-20T07:51:26.846Z,16.59
2023-03-20T07:53:55.735Z,16.78
2023-03-20T07:56:24.824Z,16.86
2023-03-20T07:59:01.524Z,16.94
2023-03-20T08:01:30.189Z,16.94
2023-03-20T08:03:59.052Z,17.00
2023-03-20T08:06:31.901Z,17.17
2023-03-20T08:09:00.990Z,17.50
2023-03-20T08:11:35.099Z,17.56
2023-03-20T08:14:06.712Z,17.60
2023-03-20T08:16:40.190Z,17.65
2023-03-20T08:19:08.789Z,17.81
2023-03-20T08:21:40.448Z,17.95
2023-03-20T08:24:12.305Z,18.19
2023-03-20T08:26:44.485Z,18.23
2023-03-20T08:29:22.989Z,18.29
2023-03-20T08:31:52.180Z,18.59
2023-03-20T08:34:24.258Z,18.74
2023-03-20T08:36:54.673Z,18.85
2023-03-20T08:39:23.166Z,19.08
2023-03-20T08:41:51.678Z,19.39
2023-03-20T08:44:22.368Z,19.66
2023-03-20T08:46:51.065Z,19.81
2023-03-20T08:49:20.282Z,19.97
2023-03-20T08:51:53.006Z,19.87
2023-03-20T08:54:24.409Z,19.59
2023-03-20T08:56:54.138Z,19.45
2023-03-20T08:59:23.137Z,19.55
2023-03-20T09:01:51.747Z,19.98
2023-03-20T09:04:22.104Z,20.12
2023-03-20T09:06:53.173Z,20.06
2023-03-20T09:09:27.273Z,20.01
2023-03-20T09:11:57.498Z,20.04
2023-03-20T09:14:28.546Z,20.24
2023-03-20T09:16:57.402Z,20.40
2023-03-20T09:19:26.525Z,20.38
2023-03-20T09:21:55.669Z,20.13
2023-03-20T09:24:24.048Z,20.15
2023-03-20T09:26:52.576Z,20.18
2023-03-20T09:29:22.274Z,20.19
2023-03-20T09:31:54.757Z,20.03
2023-03-20T09:34:24.757Z,19.78
2023-03-20T09:36:53.474Z,19.78
2023-03-20T09:39:22.008Z,19.98
2023-03-20T09:41:57.040Z,20.06
2023-03-20T09:44:27.662Z,20.03
2023-03-20T09:47:33.339Z,19.98
2023-03-20T09:50:43.766Z,20.12
2023-03-20T09:53:24.216Z,20.25
2023-03-20T09:55:53.970Z,20.43
2023-03-20T09:58:27.643Z,20.47
2023-03-20T10:01:02.042Z,20.42
2023-03-20T10:03:48.946Z,20.65
2023-03-20T10:06:22.252Z,20.96
2023-03-20T10:08:58.310Z,21.21
2023-03-20T10:12:18.432Z,21.07
2023-03-20T10:15:25.246Z,20.80
2023-03-20T10:18:10.387Z,20.87
2023-03-20T10:21:24.520Z,20.97
2023-03-20T10:24:06.670Z,20.98
2023-03-20T10:26:36.795Z,21.11
2023-03-20T10:29:28.940Z,21.37
2023-03-20T10:32:20.059Z,21.56
2023-03-20T10:35:01.589Z,21.77
2023-03-20T10:37:59.317Z,21.88
2023-03-20T10:40:33.389Z,21.88
2023-03-20T10:43:23.790Z,21.96
2023-03-20T10:46:21.778Z,22.05
2023-03-20T10:49:13.862Z,22.07
2023-03-20T10:51:47.302Z,22.31
2023-03-20T10:54:42.638Z,22.63
2023-03-20T10:57:21.137Z,22.81
2023-03-20T10:59:52.626Z,22.68
2023-03-20T11:02:29.830Z,22.64
2023-03-20T11:05:03.028Z,22.89
2023-03-20T11:07:36.294Z,23.33
2023-03-20T11:10:07.551Z,23.67
2023-03-20T11:12:37.932Z,23.54
2023-03-20T11:15:20.128Z,23.38
2023-03-20T11:17:57.326Z,23.25
2023-03-20T11:20:39.748Z,23.37
2023-03-20T11:23:26.248Z,23.62
2023-03-20T11:26:03.625Z,23.78
2023-03-20T11:28:57.724Z,23.83
2023-03-20T11:31:43.522Z,24.13
2023-03-20T11:34:22.237Z,24.28
2023-03-20T11:37:10.227Z,23.96
2023-03-20T11:40:18.046Z,23.73
2023-03-20T11:42:57.893Z,23.46
2023-03-20T11:45:39.126Z,23.44
2023-03-20T11:48:24.273Z,23.73
2023-03-20T11:51:05.007Z,23.88
2023-03-20T11:53:46.403Z,23.77
2023-03-20T11:56:31.985Z,23.51
2023-03-20T11:59:23.053Z,23.23
2023-03-20T12:01:54.543Z,23.06
2023-03-20T12:04:44.198Z,22.66
2023-03-20T12:07:17.322Z,22.23
2023-03-20T12:09:48.973Z,21.84
2023-03-20T12:12:38.594Z,21.36
2023-03-20T12:15:40.222Z,20.86
2023-03-20T12:18:36.051Z,20.41
2023-03-20T12:21:16.093Z,19.89
2023-03-20T12:24:04.892Z,19.42
2023-03-20T12:27:09.675Z,18.90
2023-03-20T12:30:01.752Z,18.36
2023-03-20T12:32:42.682Z,18.06
2023-03-20T12:35:16.871Z,17.75
2023-03-20T12:37:45.377Z,17.40
2023-03-20T12:40:17.740Z,17.16
2023-03-20T12:43:10.493Z,16.95
2023-03-20T12:45:44.726Z,16.64
2023-03-20T12:48:25.980Z,16.26
2023-03-20T12:51:26.944Z,15.77
2023-03-20T12:54:02.964Z,15.40
2023-03-20T12:56:32.395Z,15.23
2023-03-20T12:59:19.195Z,15.04
2023-03-20T13:01:53.568Z,14.98
2023-03-20T13:04:50.271Z,14.95
2023-03-20T13:07:22.060Z,14.79
2023-03-20T13:10:22.671Z,14.57
2023-03-20T13:13:12.749Z,14.44
2023-03-20T13:16:09.045Z,14.39
2023-03-20T13:18:48.728Z,14.45
2023-03-20T13:21:28.357Z,14.46
2023-03-20T13:24:00.581Z,14.37
2023-03-20T13:26:46.522Z,14.30
2023-03-20T13:29:33.888Z,14.17
2023-03-20T13:32:10.163Z,14.12
2023-03-20T13:35:10.675Z,14.07
2023-03-20T13:37:46.123Z,14.09
2023-03-20T13:40:47.231Z,14.13
2023-03-20T13:43:30.776Z,14.16
2023-03-20T13:46:09.398Z,14.15
2023-03-20T13:48:42.789Z,14.06
2023-03-20T13:51:21.304Z,13.89
2023-03-20T13:54:17.066Z,13.75
2023-03-20T13:57:00.245Z,13.71
2023-03-20T14:00:05.513Z,13.68
2023-03-20T14:02:56.452Z,13.60
2023-03-20T14:05:26.946Z,13.54
2023-03-20T14:08:02.516Z,13.44
2023-03-20T14:10:36.167Z,13.37
2023-03-20T14:13:08.400Z,13.29
2023-03-20T14:15:40.653Z,13.22
2023-03-20T14:18:17.412Z,13.15
2023-03-20T14:21:01.797Z,13.08
2023-03-20T14:24:01.188Z,13.06
2023-03-20T14:26:37.372Z,13.01
2023-03-20T14:29:11.238Z,12.90
2023-03-20T14:31:42.501Z,12.85
2023-03-20T14:34:27.177Z,12.84
2023-03-20T14:36:59.466Z,12.80
2023-03-20T14:39:40.194Z,12.73
2023-03-20T14:42:31.713Z,12.63
2023-03-20T14:45:31.307Z,12.57
2023-03-20T14:48:14.284Z,12.51
2023-03-20T14:50:47.653Z,12.40
2023-03-20T14:53:21.314Z,12.32
2023-03-20T14:55:54.046Z,12.25
2023-03-20T14:58:40.516Z,12.14
2023-03-20T15:01:21.038Z,12.05
2023-03-20T15:04:08.014Z,11.98
2023-03-20T15:06:47.803Z,11.90
2023-03-20T15:09:19.261Z,11.81
2023-03-20T15:11:50.086Z,11.75
2023-03-20T15:14:25.129Z,11.64
2023-03-20T15:17:22.200Z,11.56
2023-03-20T15:20:03.268Z,11.52
2023-03-20T15:22:34.125Z,11.47
2023-03-20T15:25:05.456Z,11.41
2023-03-20T15:27:44.305Z,11.34
2023-03-20T15:30:39.419Z,11.31
2023-03-20T15:33:15.092Z,11.28
2023-03-20T15:35:43.755Z,11.24
2023-03-20T15:38:14.128Z,11.19
2023-03-20T15:40:51.145Z,11.12
2023-03-20T15:43:25.695Z,11.05
2023-03-20T15:46:16.148Z,10.98
2023-03-20T15:49:17.015Z,10.92
2023-03-20T15:51:50.207Z,10.82
2023-03-20T15:54:20.184Z,10.73
2023-03-20T15:56:51.922Z,10.66
2023-03-20T15:59:23.510Z,10.61
2023-03-20T16:01:53.538Z,10.53
2023-03-20T16:04:27.383Z,10.47
2023-03-20T16:07:00.385Z,10.40
2023-03-20T16:13:04.375Z,10.29
2023-03-20T16:15:42.933Z,10.25
2023-03-20T16:18:17.292Z,10.19
2023-03-20T16:20:59.367Z,10.13
2023-03-20T16:23:36.769Z,10.07
2023-03-20T16:26:17.332Z,10.01
2023-03-20T16:28:58.768Z,9.94
2023-03-20T16:31:34.328Z,9.89
2023-03-20T16:34:06.970Z,9.85
2023-03-20T16:36:40.491Z,9.81
2023-03-20T16:39:16.010Z,9.73
2023-03-20T16:42:13.452Z,9.67
2023-03-20T16:44:43.969Z,9.60
2023-03-20T16:47:20.415Z,9.55
2023-03-20T16:50:21.185Z,9.49
2023-03-20T16:52:56.455Z,9.42
2023-03-20T16:55:34.949Z,9.34
2023-03-20T16:58:06.214Z,9.24
2023-03-20T17:01:11.337Z,9.12
2023-03-20T17:04:12.627Z,8.96
2023-03-20T17:06:53.236Z,8.83
2023-03-20T17:09:25.345Z,8.69
2023-03-20T17:12:14.623Z,8.58
2023-03-20T17:14:46.890Z,8.46
2023-03-20T17:17:21.305Z,8.36
2023-03-20T17:19:53.358Z,8.28
2023-03-20T17:22:25.668Z,8.20
2023-03-20T17:25:00.155Z,8.10
2023-03-20T17:27:34.856Z,8.03
2023-03-20T17:30:11.649Z,7.96
2023-03-20T17:32:49.539Z,7.91
2023-03-20T17:35:25.076Z,7.86
2023-03-20T17:37:53.958Z,7.81
2023-03-20T17:40:24.411Z,7.75
2023-03-20T17:42:57.768Z,7.71
2023-03-20T17:45:31.596Z,7.64
2023-03-20T17:48:03.886Z,7.58
2023-03-20T17:50:37.912Z,7.52
2023-03-20T17:53:22.190Z,7.46
2023-03-20T17:55:51.794Z,7.39
2023-03-20T17:58:23.606Z,7.33
2023-03-20T18:00:53.583Z,7.29
2023-03-20T18:03:26.314Z,7.26
2023-03-20T18:05:58.199Z,7.22
2023-03-20T18:08:36.264Z,7.16
2023-03-20T18:11:09.909Z,7.10
2023-03-20T18:13:41.084Z,7.05
2023-03-20T18:16:32.976Z,7.01
2023-03-20T18:19:02.318Z,6.97
2023-03-20T18:21:34.560Z,6.94
2023-03-20T18:24:06.896Z,6.93
2023-03-20T18:26:39.574Z,6.94
2023-03-20T18:29:10.835Z,6.94
2023-03-20T18:31:43.279Z,6.93
2023-03-20T18:34:13.552Z,6.91
2023-03-20T18:36:45.968Z,6.90
2023-03-20T18:39:24.704Z,6.89
2023-03-20T18:41:56.936Z,6.89
2023-03-20T18:44:28.383Z,6.89
2023-03-20T18:46:59.411Z,6.88
2023-03-20T18:49:31.864Z,6.87
2023-03-20T18:52:04.218Z,6.84
2023-03-20T18:54:39.894Z,6.81
2023-03-20T18:57:19.712Z,6.79
2023-03-20T18:59:51.112Z,6.78
2023-03-20T19:02:20.181Z,6.79
2023-03-20T19:04:51.155Z,6.80
2023-03-20T19:07:21.042Z,6.82
2023-03-20T19:09:49.942Z,6.83
2023-03-20T19:12:18.851Z,6.85
2023-03-20T19:14:47.464Z,6.85
2023-03-20T19:17:20.983Z,6.84
2023-03-20T19:19:51.936Z,6.84
2023-03-20T19:22:29.357Z,6.84
2023-03-20T19:24:58.427Z,6.83
2023-03-20T19:27:30.331Z,6.82
2023-03-20T19:30:00.565Z,6.84
2023-03-20T19:32:29.111Z,6.82
2023-03-20T19:35:43.525Z,6.78
2023-03-20T19:37:48.074Z,6.74
2023-03-20T19:40:42.953Z,6.68
2023-03-20T19:43:15.558Z,6.62
2023-03-20T19:45:51.163Z,6.55
2023-03-20T19:48:50.535Z,6.49
2023-03-20T19:51:23.559Z,6.42
2023-03-20T19:53:57.033Z,6.35
2023-03-20T19:56:25.916Z,6.29
2023-03-20T19:59:00.261Z,6.23
2023-03-20T20:01:29.314Z,6.18
2023-03-20T20:03:59.265Z,6.13
2023-03-20T20:06:33.499Z,6.08
2023-03-20T20:09:05.030Z,6.05
2023-03-20T20:11:35.813Z,6.02
2023-03-20T20:14:10.137Z,5.98
2023-03-20T20:16:46.244Z,5.91
2023-03-20T20:19:24.766Z,5.86
2023-03-20T20:24:45.012Z,5.78
2023-03-20T20:27:18.564Z,5.74
2023-03-20T20:29:51.440Z,5.70
2023-03-20T20:32:23.964Z,5.66
2023-03-20T20:40:33.694Z,5.53
2023-03-20T20:43:10.123Z,5.47
2023-03-20T20:45:43.976Z,5.44
2023-03-20T20:48:14.706Z,5.43
2023-03-20T20:50:46.757Z,5.42
2023-03-20T20:53:26.337Z,5.38
2023-03-20T20:55:56.793Z,5.33
2023-03-20T20:58:31.947Z,5.30
2023-03-20T21:01:02.966Z,5.26
2023-03-20T21:03:31.545Z,5.22
2023-03-20T21:06:06.052Z,5.18
2023-03-20T21:08:36.588Z,5.11
2023-03-20T21:11:15.239Z,5.10
2023-03-20T21:13:53.846Z,5.11
2023-03-20T21:16:23.386Z,5.11
2023-03-20T21:19:03.512Z,5.12
2023-03-20T21:21:32.118Z,5.14
2023-03-20T21:24:06.000Z,5.14
2023-03-20T21:26:46.604Z,5.11
2023-03-20T21:29:18.976Z,5.10
2023-03-20T21:31:48.986Z,5.07
2023-03-20T21:34:17.751Z,5.00
2023-03-20T21:36:49.224Z,4.89
2023-03-20T21:39:19.580Z,4.79
2023-03-20T21:41:49.551Z,4.71
2023-03-20T21:44:48.786Z,4.68
2023-03-20T21:48:04.015Z,4.65
2023-03-20T21:50:41.825Z,4.63
2023-03-20T21:56:50.461Z,4.60
2023-03-20T22:05:10.989Z,4.48
2023-03-20T22:10:34.545Z,4.44
2023-03-20T22:13:33.354Z,4.42
2023-03-20T22:16:04.706Z,4.41
2023-03-20T22:30:15.117Z,4.42
2023-03-20T22:33:03.508Z,4.43
2023-03-20T22:36:15.686Z,4.44
2023-03-20T22:44:41.751Z,4.32
2023-03-20T22:46:47.865Z,4.27
2023-03-20T22:49:17.796Z,4.24
2023-03-20T22:52:04.792Z,4.23
2023-03-20T22:54:36.882Z,4.24
2023-03-20T22:57:05.664Z,4.26
2023-03-20T22:59:33.998Z,4.28
2023-03-20T23:02:02.350Z,4.29
2023-03-20T23:04:30.849Z,4.30
2023-03-20T23:06:59.347Z,4.30
2023-03-20T23:09:28.590Z,4.28
2023-03-20T23:11:57.001Z,4.27
2023-03-20T23:14:36.250Z,4.25
2023-03-20T23:17:11.805Z,4.23
2023-03-20T23:19:48.844Z,4.19
2023-03-20T23:22:20.618Z,4.15
2023-03-20T23:24:50.252Z,4.15
2023-03-20T23:27:20.082Z,4.12
2023-03-20T23:29:49.086Z,4.08
2023-03-20T23:32:17.583Z,4.06
2023-03-20T23:34:46.110Z,4.06
2023-03-20T23:37:14.546Z,4.06
2023-03-20T23:39:46.389Z,4.05
2023-03-20T23:42:29.616Z,4.03
2023-03-20T23:45:04.283Z,4.01
2023-03-20T23:47:44.442Z,4.00
2023-03-20T23:50:20.631Z,3.98
2023-03-20T23:53:01.070Z,3.96
2023-03-20T23:55:35.678Z,3.93
2023-03-20T23:58:04.218Z,3.92
